createdAt,value
2022-08-26T00:01:46.666Z,101114.13
2022-08-26T00:04:13.689Z,101103.78
2022-08-26T00:06:42.559Z,101108.09
2022-08-26T00:09:16.136Z,101107.09
2022-08-26T00:11:44.716Z,101107.88
2022-08-26T00:14:13.834Z,101116.41
2022-08-26T00:16:47.826Z,101105.53
2022-08-26T00:19:16.386Z,101102.41
2022-08-26T00:21:43.438Z,101096.16
2022-08-26T00:24:10.324Z,101107.25
2022-08-26T00:26:37.150Z,101102.00
2022-08-26T00:29:03.643Z,101099.84
2022-08-26T00:31:32.683Z,101101.19
2022-08-26T00:33:59.396Z,101101.78
2022-08-26T00:36:29.565Z,101098.06
2022-08-26T00:38:57.204Z,101101.56
2022-08-26T00:41:24.021Z,101097.88
2022-08-26T00:43:50.928Z,101094.53
2022-08-26T00:46:22.032Z,101094.53
2022-08-26T00:48:53.839Z,101094.53
2022-08-26T00:51:29.783Z,101091.41
2022-08-26T00:54:05.457Z,101086.72
2022-08-26T00:56:40.425Z,101097.63
2022-08-26T00:59:12.018Z,101085.19
2022-08-26T01:01:41.164Z,101094.50
2022-08-26T01:04:09.553Z,101092.16
2022-08-26T01:06:36.508Z,101081.41
2022-08-26T01:09:03.549Z,101089.59
2022-08-26T01:11:31.150Z,101076.16
2022-08-26T01:14:02.733Z,101088.63
2022-08-26T01:16:30.218Z,101092.88
2022-08-26T01:19:03.508Z,101091.34
2022-08-26T01:21:40.552Z,101097.72
2022-08-26T01:24:10.309Z,101090.91
2022-08-26T01:26:42.755Z,101085.06
2022-08-26T01:29:14.877Z,101087.78
2022-08-26T01:31:46.289Z,101092.03
2022-08-26T01:34:20.426Z,101088.91
2022-08-26T01:36:51.379Z,101098.19
2022-08-26T01:39:19.209Z,101088.28
2022-08-26T01:41:47.181Z,101089.44
2022-08-26T01:44:23.724Z,101101.28
2022-08-26T01:46:52.804Z,101088.09
2022-08-26T01:49:22.110Z,101095.81
2022-08-26T01:51:53.636Z,101095.06
2022-08-26T01:54:20.951Z,101088.44
2022-08-26T01:56:51.022Z,101094.81
2022-08-26T01:59:20.237Z,101088.03
2022-08-26T02:01:48.059Z,101088.59
2022-08-26T02:04:35.070Z,101083.88
2022-08-26T02:07:09.618Z,101087.56
2022-08-26T02:09:41.310Z,101082.28
2022-08-26T02:12:10.488Z,101089.50
2022-08-26T02:14:43.854Z,101082.09
2022-08-26T02:17:11.278Z,101084.81
2022-08-26T02:19:41.678Z,101081.69
2022-08-26T02:22:13.948Z,101078.53
2022-08-26T02:24:54.337Z,101083.59
2022-08-26T02:27:33.577Z,101088.66
2022-08-26T02:30:08.294Z,101077.31
2022-08-26T02:32:34.933Z,101074.97
2022-08-26T02:35:01.784Z,101078.69
2022-08-26T02:37:31.354Z,101079.28
2022-08-26T02:39:58.223Z,101074.78
2022-08-26T02:42:24.847Z,101084.66
2022-08-26T02:44:51.728Z,101073.81
2022-08-26T02:47:18.234Z,101068.31
2022-08-26T02:49:47.279Z,101068.31
2022-08-26T02:52:14.649Z,101065.19
2022-08-26T02:54:41.115Z,101079.00
2022-08-26T02:57:08.140Z,101065.56
2022-08-26T02:59:35.974Z,101071.38
2022-08-26T03:02:03.211Z,101059.53
2022-08-26T03:04:30.380Z,101061.63
2022-08-26T03:06:59.900Z,101059.66
2022-08-26T03:09:27.876Z,101051.13
2022-08-26T03:11:55.410Z,101061.22
2022-08-26T03:14:23.882Z,101050.13
2022-08-26T03:16:52.282Z,101044.88
2022-08-26T03:19:18.742Z,101044.09
2022-08-26T03:21:47.334Z,101058.44
2022-08-26T03:24:14.668Z,101047.34
2022-08-26T03:26:41.178Z,101042.91
2022-08-26T03:29:38.847Z,101042.66
2022-08-26T03:32:06.091Z,101047.50
2022-08-26T03:34:32.559Z,101048.28
2022-08-26T03:36:59.074Z,101045.16
2022-08-26T03:39:25.591Z,101048.66
2022-08-26T03:41:52.390Z,101044.72
2022-08-26T03:44:19.901Z,101043.94
2022-08-26T03:46:46.564Z,101037.69
2022-08-26T03:49:13.217Z,101036.91
2022-08-26T03:51:41.652Z,101044.31
2022-08-26T03:54:08.821Z,101039.06
2022-08-26T03:56:36.510Z,101044.66
2022-08-26T03:59:03.357Z,101036.47
2022-08-26T04:01:30.719Z,101036.06
2022-08-26T04:03:58.205Z,101030.25
2022-08-26T04:06:39.379Z,101037.41
2022-08-26T04:09:10.096Z,101040.31
2022-08-26T04:11:39.442Z,101032.72
2022-08-26T04:14:10.189Z,101026.69
2022-08-26T04:16:37.127Z,101034.06
2022-08-26T04:19:04.085Z,101030.91
2022-08-26T04:21:31.016Z,101035.16
2022-08-26T04:23:58.336Z,101025.44
2022-08-26T04:26:26.006Z,101026.19
2022-08-26T04:28:54.584Z,101028.13
2022-08-26T04:31:22.649Z,101026.56
2022-08-26T04:33:50.737Z,101025.00
2022-08-26T04:36:17.709Z,101035.09
2022-08-26T04:38:47.210Z,101018.75
2022-08-26T04:41:15.437Z,101029.63
2022-08-26T04:43:44.653Z,101033.88
2022-08-26T04:46:13.731Z,101033.88
2022-08-26T04:48:41.247Z,101029.38
2022-08-26T04:51:09.113Z,101042.38
2022-08-26T04:53:37.281Z,101035.00
2022-08-26T04:56:04.699Z,101043.72
2022-08-26T04:58:31.893Z,101039.28
2022-08-26T05:00:58.459Z,101037.69
2022-08-26T05:03:27.355Z,101038.81
2022-08-26T05:05:58.218Z,101045.09
2022-08-26T05:08:24.906Z,101036.13
2022-08-26T05:10:56.039Z,101046.97
2022-08-26T05:13:27.415Z,101042.50
2022-08-26T05:15:54.633Z,101043.31
2022-08-26T05:18:27.393Z,101038.81
2022-08-26T05:20:54.898Z,101036.34
2022-08-26T05:23:24.243Z,101045.28
2022-08-26T05:25:58.408Z,101041.03
2022-08-26T05:28:27.061Z,101029.16
2022-08-26T05:30:54.358Z,101029.63
2022-08-26T05:33:21.921Z,101036.97
2022-08-26T05:35:49.002Z,101035.66
2022-08-26T05:38:18.342Z,101033.50
2022-08-26T05:40:49.076Z,101035.84
2022-08-26T05:43:21.061Z,101032.38
2022-08-26T05:45:49.886Z,101036.66
2022-08-26T05:48:18.890Z,101040.53
2022-08-26T05:50:53.951Z,101043.47
2022-08-26T05:53:23.930Z,101042.13
2022-08-26T05:55:54.404Z,101036.31
2022-08-26T05:58:23.328Z,101051.06
2022-08-26T06:01:20.315Z,101051.63
2022-08-26T06:03:51.598Z,101053.41
2022-08-26T06:06:27.812Z,101057.38
2022-08-26T06:08:57.834Z,101056.00
2022-08-26T06:11:26.050Z,101060.47
2022-08-26T06:13:54.441Z,101055.44
2022-08-26T06:16:24.074Z,101057.78
2022-08-26T06:18:52.592Z,101053.53
2022-08-26T06:21:26.524Z,101055.88
2022-08-26T06:24:15.149Z,101053.53
2022-08-26T06:26:46.825Z,101058.22
2022-08-26T06:29:24.717Z,101051.03
2022-08-26T06:31:56.271Z,101047.00
2022-08-26T06:34:29.656Z,101039.81
2022-08-26T06:36:58.493Z,101044.31
2022-08-26T06:39:25.111Z,101042.38
2022-08-26T06:41:51.998Z,101039.09
2022-08-26T06:44:19.382Z,101032.72
2022-08-26T06:46:46.330Z,101036.63
2022-08-26T06:49:17.662Z,101036.63
2022-08-26T06:51:44.560Z,101032.38
2022-08-26T06:54:11.391Z,101038.63
2022-08-26T06:56:42.980Z,101040.41
2022-08-26T06:59:11.653Z,101035.59
2022-08-26T07:01:44.525Z,101041.03
2022-08-26T07:04:15.551Z,101035.22
2022-08-26T07:06:48.704Z,101033.31
2022-08-26T07:09:16.827Z,101039.91
2022-08-26T07:11:44.477Z,101040.31
2022-08-26T07:14:12.083Z,101051.63
2022-08-26T07:16:39.936Z,101054.75
2022-08-26T07:19:10.654Z,101051.06
2022-08-26T07:21:40.202Z,101049.31
2022-08-26T07:24:07.198Z,101047.41
2022-08-26T07:26:33.672Z,101050.53
2022-08-26T07:29:01.701Z,101047.84
2022-08-26T07:31:36.009Z,101045.91
2022-08-26T07:34:09.277Z,101062.25
2022-08-26T07:36:36.437Z,101047.88
2022-08-26T07:39:03.092Z,101053.94
2022-08-26T07:44:00.949Z,101052.03
2022-08-26T07:46:30.426Z,101051.09
2022-08-26T07:48:57.970Z,101052.88
2022-08-26T07:51:25.471Z,101048.06
2022-08-26T07:53:52.901Z,101050.38
2022-08-26T07:56:21.691Z,101050.38
2022-08-26T07:58:51.698Z,101048.09
2022-08-26T08:01:24.319Z,101057.06
2022-08-26T08:03:53.821Z,101053.00
2022-08-26T08:06:23.065Z,101051.84
2022-08-26T08:08:54.327Z,101049.13
2022-08-26T08:11:21.413Z,101048.00
2022-08-26T08:13:50.064Z,101049.56
2022-08-26T08:16:24.593Z,101049.97
2022-08-26T08:18:51.428Z,101040.06
2022-08-26T08:21:22.225Z,101041.84
2022-08-26T08:23:55.402Z,101035.63
2022-08-26T08:26:22.999Z,101036.63
2022-08-26T08:28:49.964Z,101041.31
2022-08-26T08:31:55.884Z,101047.34
2022-08-26T08:34:15.851Z,101039.38
2022-08-26T08:36:46.195Z,101039.00
2022-08-26T08:39:13.604Z,101039.41
2022-08-26T08:41:59.630Z,101040.97
2022-08-26T08:47:06.135Z,101047.66
2022-08-26T08:49:34.341Z,101043.78
2022-08-26T08:52:36.720Z,101042.63
2022-08-26T08:55:06.127Z,101039.56
2022-08-26T08:58:01.988Z,101038.97
2022-08-26T09:00:46.460Z,101043.84
2022-08-26T09:03:30.982Z,101039.56
2022-08-26T09:06:00.220Z,101029.66
2022-08-26T09:08:35.049Z,101041.16
2022-08-26T09:11:03.578Z,101041.53
2022-08-26T09:13:31.570Z,101030.66
2022-08-26T09:16:04.197Z,101033.41
2022-08-26T09:19:03.971Z,101035.75
2022-08-26T09:21:31.596Z,101035.00
2022-08-26T09:23:58.646Z,101038.88
2022-08-26T09:26:30.873Z,101031.09
2022-08-26T09:29:03.216Z,101034.63
2022-08-26T09:31:32.649Z,101024.69
2022-08-26T09:34:12.060Z,101029.16
2022-08-26T09:36:53.652Z,101022.16
2022-08-26T09:39:23.928Z,101026.84
2022-08-26T09:42:02.761Z,101029.97
2022-08-26T09:44:29.304Z,101023.38
2022-08-26T09:46:59.973Z,101017.72
2022-08-26T09:49:35.613Z,101014.63
2022-08-26T09:52:04.762Z,101014.41
2022-08-26T09:54:33.510Z,101008.56
2022-08-26T09:57:16.134Z,101010.31
2022-08-26T09:59:43.107Z,100999.59
2022-08-26T10:02:28.860Z,101000.41
2022-08-26T10:04:57.661Z,100997.66
2022-08-26T10:07:40.317Z,101000.94
2022-08-26T10:10:12.510Z,100997.66
2022-08-26T10:12:58.595Z,100996.66
2022-08-26T10:15:27.817Z,100988.25
2022-08-26T10:18:02.973Z,100991.19
2022-08-26T10:20:37.234Z,100992.53
2022-08-26T10:23:18.539Z,100988.25
2022-08-26T10:25:51.217Z,100990.78
2022-08-26T10:28:21.568Z,100986.09
2022-08-26T10:30:59.458Z,100990.19
2022-08-26T10:33:26.038Z,100978.47
2022-08-26T10:35:57.504Z,100983.91
2022-08-26T10:38:34.208Z,100972.19
2022-08-26T10:41:20.433Z,100974.53
2022-08-26T10:43:59.842Z,100965.34
2022-08-26T10:46:36.867Z,100974.69
2022-08-26T10:49:08.624Z,100969.81
2022-08-26T10:51:42.122Z,100966.09
2022-08-26T10:54:16.340Z,100958.03
2022-08-26T10:57:09.824Z,100953.94
2022-08-26T10:59:50.714Z,100949.22
2022-08-26T11:02:38.403Z,100941.22
2022-08-26T11:05:15.352Z,100935.16
2022-08-26T11:07:45.980Z,100939.06
2022-08-26T11:10:18.414Z,100935.34
2022-08-26T11:12:45.353Z,100932.22
2022-08-26T11:15:24.725Z,100927.28
2022-08-26T11:17:51.316Z,100919.31
2022-08-26T11:20:29.930Z,100923.38
2022-08-26T11:23:28.138Z,100915.72
2022-08-26T11:26:10.067Z,100901.88
2022-08-26T11:28:49.573Z,100897.53
2022-08-26T11:31:19.201Z,100897.31
2022-08-26T11:33:59.884Z,100893.03
2022-08-26T11:36:41.686Z,100886.31
2022-08-26T11:39:36.904Z,100875.78
2022-08-26T11:42:37.325Z,100860.56
2022-08-26T11:45:17.613Z,100865.66
2022-08-26T11:47:44.666Z,100858.59
2022-08-26T11:50:19.782Z,100866.78
2022-08-26T11:53:01.583Z,100851.09
2022-08-26T11:55:33.433Z,100854.81
2022-08-26T11:58:04.810Z,100855.75
2022-08-26T12:00:58.447Z,100852.25
2022-08-26T12:03:38.937Z,100859.47
2022-08-26T12:06:15.032Z,100856.09
2022-08-26T12:08:44.351Z,100857.22
2022-08-26T12:11:33.275Z,100860.16
2022-08-26T12:14:03.835Z,100857.59
2022-08-26T12:16:36.776Z,100857.66
2022-08-26T12:19:25.229Z,100863.47
2022-08-26T12:22:03.457Z,100848.97
2022-08-26T12:24:30.328Z,100849.34
2022-08-26T12:27:30.802Z,100854.44
2022-08-26T12:30:12.403Z,100847.38
2022-08-26T12:32:55.145Z,100844.00
2022-08-26T12:35:24.874Z,100838.63
2022-08-26T12:37:53.778Z,100831.16
2022-08-26T12:40:46.546Z,100827.97
2022-08-26T12:43:34.273Z,100830.03
2022-08-26T12:46:00.937Z,100828.84
2022-08-26T12:48:32.106Z,100835.06
2022-08-26T12:50:59.817Z,100825.66
2022-08-26T12:53:30.262Z,100820.25
2022-08-26T12:56:04.555Z,100820.91
2022-08-26T12:58:32.375Z,100826.94
2022-08-26T13:01:22.222Z,100824.78
2022-08-26T13:03:49.410Z,100821.25
2022-08-26T13:06:29.425Z,100821.59
2022-08-26T13:09:10.051Z,100810.03
2022-08-26T13:11:39.430Z,100810.19
2022-08-26T13:14:12.549Z,100803.56
2022-08-26T13:16:48.233Z,100802.97
2022-08-26T13:19:29.464Z,100800.19
2022-08-26T13:21:58.354Z,100796.84
2022-08-26T13:24:38.661Z,100788.66
2022-08-26T13:27:08.080Z,100785.13
2022-08-26T13:29:35.195Z,100793.63
2022-08-26T13:32:03.105Z,100786.41
2022-08-26T13:34:30.006Z,100778.38
2022-08-26T13:36:58.298Z,100773.25
2022-08-26T13:39:25.967Z,100777.00
2022-08-26T13:41:53.183Z,100776.19
2022-08-26T13:44:20.065Z,100773.88
2022-08-26T13:46:46.549Z,100773.25
2022-08-26T13:49:13.291Z,100767.41
2022-08-26T13:51:40.691Z,100770.16
2022-08-26T13:54:07.681Z,100780.69
2022-08-26T13:56:35.438Z,100786.56
2022-08-26T13:59:02.934Z,100789.66
2022-08-26T14:01:31.279Z,100773.44
2022-08-26T14:03:58.627Z,100775.16
2022-08-26T14:06:25.324Z,100775.16
2022-08-26T14:08:51.955Z,100772.41
2022-08-26T14:11:18.594Z,100778.25
2022-08-26T14:13:45.068Z,100772.41
2022-08-26T14:16:19.495Z,100777.25
2022-08-26T14:18:50.522Z,100772.41
2022-08-26T14:21:17.363Z,100781.88
2022-08-26T14:23:43.859Z,100783.44
2022-08-26T14:26:11.956Z,100799.66
2022-08-26T14:28:54.615Z,100772.75
2022-08-26T14:31:23.368Z,100779.91
2022-08-26T14:33:49.987Z,100782.22
2022-08-26T14:36:28.219Z,100774.97
2022-08-26T14:38:58.011Z,100769.09
2022-08-26T14:41:25.288Z,100791.81
2022-08-26T14:43:57.976Z,100782.50
2022-08-26T14:46:28.659Z,100784.22
2022-08-26T14:49:01.744Z,100780.94
2022-08-26T14:51:29.577Z,100770.16
2022-08-26T14:54:14.154Z,100756.88
2022-08-26T14:56:46.364Z,100766.47
2022-08-26T14:59:14.633Z,100765.66
2022-08-26T15:01:41.189Z,100769.03
2022-08-26T15:04:07.740Z,100767.75
2022-08-26T15:06:35.260Z,100775.59
2022-08-26T15:09:02.212Z,100772.25
2022-08-26T15:11:29.157Z,100771.38
2022-08-26T15:13:55.774Z,100769.34
2022-08-26T15:16:22.736Z,100759.03
2022-08-26T15:18:51.207Z,100757.94
2022-08-26T15:21:19.353Z,100762.88
2022-08-26T15:23:47.782Z,100768.13
2022-08-26T15:26:15.548Z,100774.16
2022-08-26T15:28:42.008Z,100779.25
2022-08-26T15:31:08.767Z,100790.47
2022-08-26T15:33:36.432Z,100802.44
2022-08-26T15:36:04.294Z,100799.19
2022-08-26T15:38:32.495Z,100811.78
2022-08-26T15:41:02.917Z,100812.72
2022-08-26T15:43:29.733Z,100810.41
2022-08-26T15:45:57.716Z,100818.25
2022-08-26T15:48:24.986Z,100824.97
2022-08-26T15:51:00.461Z,100839.19
2022-08-26T15:53:30.119Z,100837.81
2022-08-26T15:55:58.172Z,100826.63
2022-08-26T15:58:27.131Z,100823.09
2022-08-26T16:00:54.949Z,100817.63
2022-08-26T16:03:21.779Z,100815.13
2022-08-26T16:05:48.427Z,100820.03
2022-08-26T16:08:15.424Z,100817.09
2022-08-26T16:10:49.797Z,100825.50
2022-08-26T16:13:19.809Z,100836.41
2022-08-26T16:15:48.089Z,100840.19
2022-08-26T16:18:15.492Z,100836.13
2022-08-26T16:21:12.879Z,100848.00
2022-08-26T16:23:37.440Z,100842.75
2022-08-26T16:26:12.076Z,100845.19
2022-08-26T16:28:39.922Z,100824.47
2022-08-26T16:31:07.121Z,100828.44
2022-08-26T16:33:33.564Z,100835.16
2022-08-26T16:36:00.006Z,100818.59
2022-08-26T16:38:26.588Z,100823.84
2022-08-26T16:40:53.021Z,100814.47
2022-08-26T16:43:19.699Z,100811.47
2022-08-26T16:45:46.166Z,100832.84
2022-08-26T16:48:12.655Z,100800.78
2022-08-26T16:50:40.685Z,100807.63
2022-08-26T16:53:07.709Z,100790.72
2022-08-26T16:55:34.784Z,100805.78
2022-08-26T16:58:01.448Z,100806.56
2022-08-26T17:00:31.137Z,100815.72
2022-08-26T17:03:00.234Z,100803.91
2022-08-26T17:05:28.036Z,100806.88
2022-08-26T17:07:56.556Z,100803.34
2022-08-26T17:10:24.561Z,100825.63
2022-08-26T17:12:51.776Z,100827.78
2022-08-26T17:15:19.022Z,100850.41
2022-08-26T17:17:45.495Z,100855.47
2022-08-26T17:20:15.613Z,100870.09
2022-08-26T17:22:45.639Z,100869.19
2022-08-26T17:25:15.560Z,100878.16
2022-08-26T17:27:42.950Z,100870.56
2022-08-26T17:30:10.090Z,100874.28
2022-08-26T17:32:36.803Z,100877.81
2022-08-26T17:35:04.736Z,100882.84
2022-08-26T17:37:31.294Z,100864.53
2022-08-26T17:39:58.381Z,100868.81
2022-08-26T17:42:31.373Z,100866.50
2022-08-26T17:44:58.389Z,100863.22
2022-08-26T17:47:25.003Z,100853.63
2022-08-26T17:49:51.661Z,100873.34
2022-08-26T17:52:18.165Z,100879.03
2022-08-26T17:54:44.846Z,100874.53
2022-08-26T17:57:11.361Z,100875.91
2022-08-26T17:59:38.585Z,100885.88
2022-08-26T18:02:07.485Z,100898.94
2022-08-26T18:04:34.237Z,100891.16
2022-08-26T18:07:01.248Z,100895.63
2022-08-26T18:09:31.146Z,100907.94
2022-08-26T18:11:58.444Z,100919.44
2022-08-26T18:14:25.212Z,100931.94
2022-08-26T18:16:52.105Z,100929.41
2022-08-26T18:19:18.790Z,100938.75
2022-08-26T18:21:45.309Z,100948.47
2022-08-26T18:24:13.995Z,100967.59
2022-08-26T18:26:44.473Z,100976.19
2022-08-26T18:29:11.168Z,100974.63
2022-08-26T18:31:37.604Z,100969.94
2022-08-26T18:34:04.184Z,100951.03
2022-08-26T18:36:34.118Z,100955.91
2022-08-26T18:39:00.984Z,100946.38
2022-08-26T18:41:30.359Z,100930.00
2022-08-26T18:43:57.868Z,100926.28
2022-08-26T18:46:26.484Z,100923.19
2022-08-26T18:48:56.141Z,100923.78
2022-08-26T18:51:26.020Z,100920.66
2022-08-26T18:53:53.325Z,100920.47
2022-08-26T18:56:19.872Z,100927.09
2022-08-26T18:58:46.512Z,100926.13
2022-08-26T19:01:13.711Z,100931.78
2022-08-26T19:03:40.576Z,100923.59
2022-08-26T19:06:07.311Z,100931.41
2022-08-26T19:08:33.763Z,100944.28
2022-08-26T19:11:00.690Z,100940.38
2022-08-26T19:13:27.138Z,100940.97
2022-08-26T19:15:53.636Z,100924.78
2022-08-26T19:18:20.075Z,100915.84
2022-08-26T19:20:47.816Z,100903.78
2022-08-26T19:23:31.037Z,100892.84
2022-08-26T19:25:58.538Z,100888.59
2022-08-26T19:28:24.946Z,100893.84
2022-08-26T19:30:53.378Z,100897.34
2022-08-26T19:33:20.115Z,100897.53
2022-08-26T19:35:46.639Z,100901.25
2022-08-26T19:38:13.625Z,100893.09
2022-08-26T19:40:40.367Z,100896.38
2022-08-26T19:43:07.120Z,100889.00
2022-08-26T19:45:34.582Z,100898.34
2022-08-26T19:48:01.146Z,100901.25
2022-08-26T19:50:31.062Z,100900.28
2022-08-26T19:52:58.498Z,100903.03
2022-08-26T19:55:26.129Z,100904.16
2022-08-26T19:57:53.706Z,100910.59
2022-08-26T20:00:23.760Z,100912.72
2022-08-26T20:02:51.750Z,100917.00
2022-08-26T20:05:20.907Z,100913.72
2022-08-26T20:07:47.897Z,100904.16
2022-08-26T20:10:16.556Z,100906.31
2022-08-26T20:12:43.588Z,100902.97
2022-08-26T20:15:12.002Z,100905.53
2022-08-26T20:17:39.374Z,100912.31
2022-08-26T20:20:33.193Z,100902.63
2022-08-26T20:23:01.297Z,100908.03
2022-08-26T20:25:28.305Z,100910.00
2022-08-26T20:27:54.737Z,100910.78
2022-08-26T20:30:21.365Z,100904.94
2022-08-26T20:32:48.376Z,100901.25
2022-08-26T20:35:14.928Z,100907.47
2022-08-26T20:37:42.364Z,100910.38
2022-08-26T20:40:12.464Z,100907.28
2022-08-26T20:42:39.031Z,100904.94
2022-08-26T20:45:07.231Z,100915.84
2022-08-26T20:47:34.390Z,100928.28
2022-08-26T20:50:02.331Z,100923.81
2022-08-26T20:52:28.855Z,100915.44
2022-08-26T20:54:55.510Z,100911.91
2022-08-26T20:57:22.243Z,100912.72
2022-08-26T20:59:49.029Z,100919.13
2022-08-26T21:02:15.970Z,100924.41
2022-08-26T21:04:42.515Z,100924.97
2022-08-26T21:07:09.001Z,100921.47
2022-08-26T21:09:35.503Z,100930.63
2022-08-26T21:12:02.322Z,100929.81
2022-08-26T21:14:28.839Z,100926.72
2022-08-26T21:16:56.460Z,100925.72
2022-08-26T21:19:23.128Z,100918.53
2022-08-26T21:21:50.242Z,100927.09
2022-08-26T21:24:17.363Z,100920.09
2022-08-26T21:26:43.964Z,100920.84
2022-08-26T21:29:10.593Z,100916.59
2022-08-26T21:31:40.975Z,100913.47
2022-08-26T21:34:11.560Z,100906.06
2022-08-26T21:36:37.988Z,100909.19
2022-08-26T21:39:09.284Z,100905.66
2022-08-26T21:41:38.084Z,100917.34
2022-08-26T21:44:04.542Z,100909.16
2022-08-26T21:46:31.022Z,100916.97
2022-08-26T21:49:00.145Z,100912.47
2022-08-26T21:51:29.489Z,100922.59
2022-08-26T21:53:57.906Z,100918.63
2022-08-26T21:56:27.443Z,100909.88
2022-08-26T21:58:55.669Z,100912.22
2022-08-26T22:01:25.195Z,100915.34
2022-08-26T22:03:52.592Z,100921.75
2022-08-26T22:06:21.716Z,100921.16
2022-08-26T22:08:48.977Z,100927.19
2022-08-26T22:11:15.705Z,100930.88
2022-08-26T22:13:43.365Z,100922.31
2022-08-26T22:16:11.378Z,100935.75
2022-08-26T22:18:38.889Z,100935.75
2022-08-26T22:21:08.802Z,100931.28
2022-08-26T22:23:37.366Z,100927.59
2022-08-26T22:26:06.749Z,100935.34
2022-08-26T22:28:34.412Z,100932.44
2022-08-26T22:31:01.855Z,100927.56
2022-08-26T22:33:28.934Z,100924.06
2022-08-26T22:35:55.899Z,100925.41
2022-08-26T22:38:23.746Z,100916.06
2022-08-26T22:40:55.940Z,100917.03
2022-08-26T22:43:28.677Z,100907.28
2022-08-26T22:45:57.157Z,100915.47
2022-08-26T22:48:26.391Z,100916.84
2022-08-26T22:50:59.608Z,100922.44
2022-08-26T22:53:26.925Z,100912.50
2022-08-26T22:55:54.292Z,100906.69
2022-08-26T22:58:21.419Z,100905.16
2022-08-26T23:00:57.625Z,100907.47
2022-08-26T23:03:26.411Z,100902.81
2022-08-26T23:05:53.000Z,100896.97
2022-08-26T23:08:20.090Z,100895.22
2022-08-26T23:10:47.705Z,100893.44
2022-08-26T23:13:15.281Z,100891.88
2022-08-26T23:15:42.689Z,100904.31
2022-08-26T23:18:10.186Z,100894.22
2022-08-26T23:20:37.717Z,100898.84
2022-08-26T23:23:04.866Z,100892.78
2022-08-26T23:25:32.418Z,100895.72
2022-08-26T23:28:00.757Z,100893.38
2022-08-26T23:30:29.619Z,100900.00
2022-08-26T23:32:56.118Z,100892.59
2022-08-26T23:35:22.608Z,100890.25
2022-08-26T23:37:52.402Z,100900.56
2022-08-26T23:40:29.529Z,100895.69
2022-08-26T23:42:57.780Z,100888.91
2022-08-26T23:45:25.837Z,100891.06
2022-08-26T23:47:53.386Z,100895.31
2022-08-26T23:50:48.219Z,100890.25
2022-08-26T23:53:20.766Z,100892.97
2022-08-26T23:55:51.968Z,100893.72
2022-08-26T23:58:20.434Z,100889.44
